sensor_id;sensor_type;location;lat;lon;timestamp;P1;durP1;ratioP1;P2;durP2;ratioP2
77876;SDS011;67251;50.844;7.978;2023-10-19T00:00:45;3.95;;;1.33;;
77876;SDS011;67251;50.844;7.978;2023-10-19T00:03:13;4.53;;;1.38;;
77876;SDS011;67251;50.844;7.978;2023-10-19T00:05:38;3.72;;;1.45;;
77876;SDS011;67251;50.844;7.978;2023-10-19T00:08:05;3.28;;;1.13;;
77876;SDS011;67251;50.844;7.978;2023-10-19T00:10:41;2.80;;;1.20;;
77876;SDS011;67251;50.844;7.978;2023-10-19T00:13:08;2.30;;;0.70;;
77876;SDS011;67251;50.844;7.978;2023-10-19T00:15:37;2.25;;;0.90;;
77876;SDS011;67251;50.844;7.978;2023-10-19T00:18:06;2.67;;;1.00;;
77876;SDS011;67251;50.844;7.978;2023-10-19T00:20:40;2.78;;;1.10;;
77876;SDS011;67251;50.844;7.978;2023-10-19T00:23:05;2.17;;;0.90;;
77876;SDS011;67251;50.844;7.978;2023-10-19T00:25:31;2.05;;;0.77;;
77876;SDS011;67251;50.844;7.978;2023-10-19T00:27:59;3.10;;;0.88;;
77876;SDS011;67251;50.844;7.978;2023-10-19T00:30:28;2.15;;;0.82;;
77876;SDS011;67251;50.844;7.978;2023-10-19T00:32:57;1.90;;;0.75;;
77876;SDS011;67251;50.844;7.978;2023-10-19T00:35:27;2.30;;;0.80;;
77876;SDS011;67251;50.844;7.978;2023-10-19T00:37:56;3.42;;;0.90;;
77876;SDS011;67251;50.844;7.978;2023-10-19T00:40:37;1.95;;;0.70;;
77876;SDS011;67251;50.844;7.978;2023-10-19T00:43:05;2.88;;;1.00;;
77876;SDS011;67251;50.844;7.978;2023-10-19T00:45:35;2.13;;;0.80;;
77876;SDS011;67251;50.844;7.978;2023-10-19T00:48:05;2.88;;;0.88;;
77876;SDS011;67251;50.844;7.978;2023-10-19T00:50:33;2.38;;;0.88;;
77876;SDS011;67251;50.844;7.978;2023-10-19T00:53:00;3.03;;;0.98;;
77876;SDS011;67251;50.844;7.978;2023-10-19T00:55:29;2.55;;;0.80;;
77876;SDS011;67251;50.844;7.978;2023-10-19T00:57:55;2.72;;;1.10;;
77876;SDS011;67251;50.844;7.978;2023-10-19T01:00:22;4.47;;;1.00;;
77876;SDS011;67251;50.844;7.978;2023-10-19T01:02:55;3.05;;;1.00;;
77876;SDS011;67251;50.844;7.978;2023-10-19T01:05:26;2.33;;;0.98;;
77876;SDS011;67251;50.844;7.978;2023-10-19T01:07:57;2.78;;;1.08;;
77876;SDS011;67251;50.844;7.978;2023-10-19T01:10:27;2.63;;;1.00;;
77876;SDS011;67251;50.844;7.978;2023-10-19T01:12:53;2.70;;;1.00;;
77876;SDS011;67251;50.844;7.978;2023-10-19T01:15:19;3.15;;;1.00;;
77876;SDS011;67251;50.844;7.978;2023-10-19T01:17:57;3.13;;;1.23;;
77876;SDS011;67251;50.844;7.978;2023-10-19T01:20:24;2.95;;;1.05;;
77876;SDS011;67251;50.844;7.978;2023-10-19T01:22:54;3.30;;;1.02;;
77876;SDS011;67251;50.844;7.978;2023-10-19T01:28:11;3.47;;;1.20;;
77876;SDS011;67251;50.844;7.978;2023-10-19T01:30:41;4.13;;;1.58;;
77876;SDS011;67251;50.844;7.978;2023-10-19T01:33:07;3.78;;;1.27;;
77876;SDS011;67251;50.844;7.978;2023-10-19T01:35:38;3.05;;;1.35;;
77876;SDS011;67251;50.844;7.978;2023-10-19T01:38:22;3.13;;;1.02;;
77876;SDS011;67251;50.844;7.978;2023-10-19T01:40:47;6.25;;;1.50;;
77876;SDS011;67251;50.844;7.978;2023-10-19T01:49:17;3.15;;;1.13;;
77876;SDS011;67251;50.844;7.978;2023-10-19T01:51:52;3.00;;;1.00;;
77876;SDS011;67251;50.844;7.978;2023-10-19T01:54:19;2.78;;;0.98;;
77876;SDS011;67251;50.844;7.978;2023-10-19T01:56:51;2.88;;;1.15;;
77876;SDS011;67251;50.844;7.978;2023-10-19T01:59:20;2.85;;;1.08;;
77876;SDS011;67251;50.844;7.978;2023-10-19T02:01:47;3.20;;;1.30;;
77876;SDS011;67251;50.844;7.978;2023-10-19T02:04:14;3.97;;;1.30;;
77876;SDS011;67251;50.844;7.978;2023-10-19T02:06:39;2.65;;;1.15;;
77876;SDS011;67251;50.844;7.978;2023-10-19T02:09:09;3.35;;;1.33;;
77876;SDS011;67251;50.844;7.978;2023-10-19T02:11:41;3.42;;;1.17;;
77876;SDS011;67251;50.844;7.978;2023-10-19T02:14:07;4.47;;;1.92;;
77876;SDS011;67251;50.844;7.978;2023-10-19T02:16:39;3.47;;;1.20;;
77876;SDS011;67251;50.844;7.978;2023-10-19T02:19:08;3.10;;;1.30;;
77876;SDS011;67251;50.844;7.978;2023-10-19T02:21:34;4.38;;;1.20;;
77876;SDS011;67251;50.844;7.978;2023-10-19T02:24:05;4.05;;;1.55;;
77876;SDS011;67251;50.844;7.978;2023-10-19T02:26:32;4.53;;;1.50;;
77876;SDS011;67251;50.844;7.978;2023-10-19T02:28:58;3.97;;;1.30;;
77876;SDS011;67251;50.844;7.978;2023-10-19T02:31:26;4.00;;;1.60;;
77876;SDS011;67251;50.844;7.978;2023-10-19T02:33:52;3.92;;;1.48;;
77876;SDS011;67251;50.844;7.978;2023-10-19T02:36:27;3.38;;;1.23;;
77876;SDS011;67251;50.844;7.978;2023-10-19T02:38:56;5.15;;;1.60;;
77876;SDS011;67251;50.844;7.978;2023-10-19T02:41:26;3.72;;;1.60;;
77876;SDS011;67251;50.844;7.978;2023-10-19T02:43:55;4.07;;;1.55;;
77876;SDS011;67251;50.844;7.978;2023-10-19T02:46:35;5.30;;;1.70;;
77876;SDS011;67251;50.844;7.978;2023-10-19T02:49:04;3.65;;;1.50;;
77876;SDS011;67251;50.844;7.978;2023-10-19T02:51:35;4.57;;;1.83;;
77876;SDS011;67251;50.844;7.978;2023-10-19T02:54:02;3.65;;;1.60;;
77876;SDS011;67251;50.844;7.978;2023-10-19T02:56:28;4.20;;;1.70;;
77876;SDS011;67251;50.844;7.978;2023-10-19T02:58:55;3.33;;;1.50;;
77876;SDS011;67251;50.844;7.978;2023-10-19T03:01:26;3.80;;;1.50;;
77876;SDS011;67251;50.844;7.978;2023-10-19T03:03:54;4.32;;;1.50;;
77876;SDS011;67251;50.844;7.978;2023-10-19T03:06:24;4.75;;;1.88;;
77876;SDS011;67251;50.844;7.978;2023-10-19T03:08:50;5.22;;;1.90;;
77876;SDS011;67251;50.844;7.978;2023-10-19T03:11:29;3.65;;;1.83;;
77876;SDS011;67251;50.844;7.978;2023-10-19T03:13:57;4.35;;;1.70;;
77876;SDS011;67251;50.844;7.978;2023-10-19T03:16:23;4.10;;;1.75;;
77876;SDS011;67251;50.844;7.978;2023-10-19T03:18:49;5.05;;;1.90;;
77876;SDS011;67251;50.844;7.978;2023-10-19T03:21:16;4.45;;;1.60;;
77876;SDS011;67251;50.844;7.978;2023-10-19T03:23:42;4.35;;;1.77;;
77876;SDS011;67251;50.844;7.978;2023-10-19T03:26:08;4.90;;;2.00;;
77876;SDS011;67251;50.844;7.978;2023-10-19T03:29:11;5.35;;;2.10;;
77876;SDS011;67251;50.844;7.978;2023-10-19T03:31:57;5.22;;;2.30;;
77876;SDS011;67251;50.844;7.978;2023-10-19T03:34:26;4.18;;;2.00;;
77876;SDS011;67251;50.844;7.978;2023-10-19T03:36:52;5.68;;;2.10;;
77876;SDS011;67251;50.844;7.978;2023-10-19T03:39:17;5.30;;;2.10;;
77876;SDS011;67251;50.844;7.978;2023-10-19T03:41:43;6.57;;;2.28;;
77876;SDS011;67251;50.844;7.978;2023-10-19T03:44:12;6.05;;;2.50;;
77876;SDS011;67251;50.844;7.978;2023-10-19T03:47:05;7.50;;;2.55;;
77876;SDS011;67251;50.844;7.978;2023-10-19T03:49:36;6.25;;;2.50;;
77876;SDS011;67251;50.844;7.978;2023-10-19T03:52:04;5.88;;;2.22;;
77876;SDS011;67251;50.844;7.978;2023-10-19T03:54:36;5.30;;;2.53;;
77876;SDS011;67251;50.844;7.978;2023-10-19T03:57:06;5.30;;;2.55;;
77876;SDS011;67251;50.844;7.978;2023-10-19T03:59:36;5.70;;;2.50;;
77876;SDS011;67251;50.844;7.978;2023-10-19T04:02:05;5.13;;;2.10;;
77876;SDS011;67251;50.844;7.978;2023-10-19T04:04:46;6.15;;;2.72;;
77876;SDS011;67251;50.844;7.978;2023-10-19T04:07:17;5.50;;;3.00;;
77876;SDS011;67251;50.844;7.978;2023-10-19T04:09:49;5.72;;;2.70;;
77876;SDS011;67251;50.844;7.978;2023-10-19T04:12:39;6.55;;;2.75;;
77876;SDS011;67251;50.844;7.978;2023-10-19T04:15:09;5.95;;;2.45;;
77876;SDS011;67251;50.844;7.978;2023-10-19T04:17:41;7.95;;;3.13;;
77876;SDS011;67251;50.844;7.978;2023-10-19T04:20:13;6.53;;;3.25;;
77876;SDS011;67251;50.844;7.978;2023-10-19T04:22:42;6.55;;;3.35;;
77876;SDS011;67251;50.844;7.978;2023-10-19T04:25:12;9.30;;;4.70;;
77876;SDS011;67251;50.844;7.978;2023-10-19T04:27:39;6.70;;;3.05;;
77876;SDS011;67251;50.844;7.978;2023-10-19T04:30:07;9.05;;;5.25;;
77876;SDS011;67251;50.844;7.978;2023-10-19T04:32:40;10.45;;;6.15;;
77876;SDS011;67251;50.844;7.978;2023-10-19T04:35:06;11.15;;;5.78;;
77876;SDS011;67251;50.844;7.978;2023-10-19T04:37:34;6.15;;;2.67;;
77876;SDS011;67251;50.844;7.978;2023-10-19T04:39:59;7.15;;;3.20;;
77876;SDS011;67251;50.844;7.978;2023-10-19T04:42:26;6.63;;;2.92;;
77876;SDS011;67251;50.844;7.978;2023-10-19T04:44:52;6.05;;;3.05;;
77876;SDS011;67251;50.844;7.978;2023-10-19T04:47:19;8.65;;;5.28;;
77876;SDS011;67251;50.844;7.978;2023-10-19T04:49:46;9.38;;;4.10;;
77876;SDS011;67251;50.844;7.978;2023-10-19T04:52:12;7.13;;;3.90;;
77876;SDS011;67251;50.844;7.978;2023-10-19T04:54:37;8.80;;;4.70;;
77876;SDS011;67251;50.844;7.978;2023-10-19T04:57:02;11.38;;;5.97;;
77876;SDS011;67251;50.844;7.978;2023-10-19T04:59:28;6.78;;;3.03;;
77876;SDS011;67251;50.844;7.978;2023-10-19T05:01:58;6.07;;;3.10;;
77876;SDS011;67251;50.844;7.978;2023-10-19T05:04:27;7.07;;;3.17;;
77876;SDS011;67251;50.844;7.978;2023-10-19T05:06:52;7.93;;;3.45;;
77876;SDS011;67251;50.844;7.978;2023-10-19T05:09:18;7.38;;;3.42;;
77876;SDS011;67251;50.844;7.978;2023-10-19T05:11:44;7.32;;;3.17;;
77876;SDS011;67251;50.844;7.978;2023-10-19T05:14:11;7.95;;;3.55;;
77876;SDS011;67251;50.844;7.978;2023-10-19T05:16:40;8.73;;;3.63;;
77876;SDS011;67251;50.844;7.978;2023-10-19T05:19:05;8.98;;;4.00;;
77876;SDS011;67251;50.844;7.978;2023-10-19T05:21:31;7.55;;;3.50;;
77876;SDS011;67251;50.844;7.978;2023-10-19T05:23:56;9.20;;;3.60;;
77876;SDS011;67251;50.844;7.978;2023-10-19T05:26:25;7.82;;;3.90;;
77876;SDS011;67251;50.844;7.978;2023-10-19T05:28:51;7.40;;;4.18;;
77876;SDS011;67251;50.844;7.978;2023-10-19T05:31:16;8.07;;;4.13;;
77876;SDS011;67251;50.844;7.978;2023-10-19T05:33:42;7.57;;;3.88;;
77876;SDS011;67251;50.844;7.978;2023-10-19T05:36:07;9.98;;;4.13;;
77876;SDS011;67251;50.844;7.978;2023-10-19T05:38:32;9.40;;;4.35;;
77876;SDS011;67251;50.844;7.978;2023-10-19T05:40:58;8.90;;;4.32;;
77876;SDS011;67251;50.844;7.978;2023-10-19T05:43:26;9.80;;;4.90;;
77876;SDS011;67251;50.844;7.978;2023-10-19T05:45:53;7.90;;;4.22;;
77876;SDS011;67251;50.844;7.978;2023-10-19T05:48:19;9.40;;;4.28;;
77876;SDS011;67251;50.844;7.978;2023-10-19T05:50:45;9.05;;;3.78;;
77876;SDS011;67251;50.844;7.978;2023-10-19T05:53:10;11.38;;;5.30;;
77876;SDS011;67251;50.844;7.978;2023-10-19T05:55:36;10.10;;;4.55;;
77876;SDS011;67251;50.844;7.978;2023-10-19T05:58:01;10.48;;;4.88;;
77876;SDS011;67251;50.844;7.978;2023-10-19T06:00:30;9.73;;;5.88;;
77876;SDS011;67251;50.844;7.978;2023-10-19T06:02:56;9.85;;;6.00;;
77876;SDS011;67251;50.844;7.978;2023-10-19T06:05:22;12.70;;;7.22;;
77876;SDS011;67251;50.844;7.978;2023-10-19T06:07:49;9.45;;;6.00;;
77876;SDS011;67251;50.844;7.978;2023-10-19T06:10:21;9.85;;;4.97;;
77876;SDS011;67251;50.844;7.978;2023-10-19T06:12:50;11.40;;;5.20;;
77876;SDS011;67251;50.844;7.978;2023-10-19T06:15:18;7.93;;;4.00;;
77876;SDS011;67251;50.844;7.978;2023-10-19T06:17:46;10.35;;;4.05;;
77876;SDS011;67251;50.844;7.978;2023-10-19T06:20:13;12.50;;;4.47;;
77876;SDS011;67251;50.844;7.978;2023-10-19T06:22:47;12.10;;;4.68;;
77876;SDS011;67251;50.844;7.978;2023-10-19T06:25:15;9.25;;;4.43;;
77876;SDS011;67251;50.844;7.978;2023-10-19T06:27:46;13.50;;;5.70;;
77876;SDS011;67251;50.844;7.978;2023-10-19T06:30:13;8.73;;;4.85;;
77876;SDS011;67251;50.844;7.978;2023-10-19T06:32:44;11.23;;;5.28;;
77876;SDS011;67251;50.844;7.978;2023-10-19T06:35:10;12.30;;;5.15;;
77876;SDS011;67251;50.844;7.978;2023-10-19T06:37:36;12.57;;;5.78;;
77876;SDS011;67251;50.844;7.978;2023-10-19T06:40:01;11.93;;;5.65;;
77876;SDS011;67251;50.844;7.978;2023-10-19T06:42:27;12.63;;;5.22;;
77876;SDS011;67251;50.844;7.978;2023-10-19T06:44:52;14.52;;;6.90;;
77876;SDS011;67251;50.844;7.978;2023-10-19T06:47:20;12.88;;;6.60;;
77876;SDS011;67251;50.844;7.978;2023-10-19T06:49:48;14.43;;;6.50;;
77876;SDS011;67251;50.844;7.978;2023-10-19T06:52:13;11.90;;;6.55;;
77876;SDS011;67251;50.844;7.978;2023-10-19T06:54:39;12.45;;;6.00;;
77876;SDS011;67251;50.844;7.978;2023-10-19T06:57:04;10.60;;;5.13;;
77876;SDS011;67251;50.844;7.978;2023-10-19T06:59:30;13.25;;;5.53;;
77876;SDS011;67251;50.844;7.978;2023-10-19T07:01:58;8.65;;;4.30;;
77876;SDS011;67251;50.844;7.978;2023-10-19T07:04:27;10.85;;;5.40;;
77876;SDS011;67251;50.844;7.978;2023-10-19T07:06:53;11.88;;;5.22;;
77876;SDS011;67251;50.844;7.978;2023-10-19T07:09:18;12.63;;;5.80;;
77876;SDS011;67251;50.844;7.978;2023-10-19T07:11:46;12.32;;;6.15;;
77876;SDS011;67251;50.844;7.978;2023-10-19T07:14:11;12.20;;;6.20;;
77876;SDS011;67251;50.844;7.978;2023-10-19T07:16:38;11.15;;;5.82;;
77876;SDS011;67251;50.844;7.978;2023-10-19T07:19:05;11.70;;;5.07;;
77876;SDS011;67251;50.844;7.978;2023-10-19T07:21:31;13.35;;;5.28;;
77876;SDS011;67251;50.844;7.978;2023-10-19T07:24:00;8.93;;;4.45;;
77876;SDS011;67251;50.844;7.978;2023-10-19T07:26:30;9.60;;;4.30;;
77876;SDS011;67251;50.844;7.978;2023-10-19T07:29:06;9.65;;;4.45;;
77876;SDS011;67251;50.844;7.978;2023-10-19T07:31:35;8.73;;;4.07;;
77876;SDS011;67251;50.844;7.978;2023-10-19T07:34:01;10.75;;;4.70;;
77876;SDS011;67251;50.844;7.978;2023-10-19T07:36:29;10.90;;;4.82;;
77876;SDS011;67251;50.844;7.978;2023-10-19T07:38:54;10.48;;;4.88;;
77876;SDS011;67251;50.844;7.978;2023-10-19T07:41:20;9.07;;;4.78;;
77876;SDS011;67251;50.844;7.978;2023-10-19T07:43:45;10.75;;;4.82;;
77876;SDS011;67251;50.844;7.978;2023-10-19T07:46:11;9.73;;;4.80;;
77876;SDS011;67251;50.844;7.978;2023-10-19T07:48:37;13.50;;;6.25;;
77876;SDS011;67251;50.844;7.978;2023-10-19T07:51:03;12.40;;;5.78;;
77876;SDS011;67251;50.844;7.978;2023-10-19T07:53:28;13.65;;;7.45;;
77876;SDS011;67251;50.844;7.978;2023-10-19T07:55:55;11.63;;;5.93;;
77876;SDS011;67251;50.844;7.978;2023-10-19T07:58:22;11.07;;;5.53;;
77876;SDS011;67251;50.844;7.978;2023-10-19T08:00:48;10.38;;;5.35;;
77876;SDS011;67251;50.844;7.978;2023-10-19T08:03:13;11.75;;;5.13;;
77876;SDS011;67251;50.844;7.978;2023-10-19T08:05:41;12.15;;;4.97;;
77876;SDS011;67251;50.844;7.978;2023-10-19T08:08:06;11.85;;;6.28;;
77876;SDS011;67251;50.844;7.978;2023-10-19T08:10:32;11.77;;;6.18;;
77876;SDS011;67251;50.844;7.978;2023-10-19T08:13:06;12.25;;;5.20;;
77876;SDS011;67251;50.844;7.978;2023-10-19T08:15:32;11.07;;;4.55;;
77876;SDS011;67251;50.844;7.978;2023-10-19T08:17:58;9.07;;;4.80;;
77876;SDS011;67251;50.844;7.978;2023-10-19T08:20:23;10.80;;;5.25;;
77876;SDS011;67251;50.844;7.978;2023-10-19T08:22:51;8.00;;;4.85;;
77876;SDS011;67251;50.844;7.978;2023-10-19T08:25:18;12.18;;;4.80;;
77876;SDS011;67251;50.844;7.978;2023-10-19T08:27:44;7.13;;;4.03;;
77876;SDS011;67251;50.844;7.978;2023-10-19T08:30:28;9.23;;;4.68;;
77876;SDS011;67251;50.844;7.978;2023-10-19T08:32:54;9.43;;;4.35;;
77876;SDS011;67251;50.844;7.978;2023-10-19T08:35:20;9.25;;;3.67;;
77876;SDS011;67251;50.844;7.978;2023-10-19T08:37:49;11.25;;;4.43;;
77876;SDS011;67251;50.844;7.978;2023-10-19T08:40:15;7.30;;;3.55;;
77876;SDS011;67251;50.844;7.978;2023-10-19T08:42:42;8.55;;;4.28;;
77876;SDS011;67251;50.844;7.978;2023-10-19T08:45:08;9.80;;;5.25;;
77876;SDS011;67251;50.844;7.978;2023-10-19T08:47:37;8.75;;;4.82;;
77876;SDS011;67251;50.844;7.978;2023-10-19T08:50:08;10.30;;;4.00;;
77876;SDS011;67251;50.844;7.978;2023-10-19T08:52:34;11.30;;;4.10;;
77876;SDS011;67251;50.844;7.978;2023-10-19T08:55:01;8.88;;;4.40;;
77876;SDS011;67251;50.844;7.978;2023-10-19T08:57:26;15.25;;;4.30;;
77876;SDS011;67251;50.844;7.978;2023-10-19T08:59:53;7.75;;;4.32;;
77876;SDS011;67251;50.844;7.978;2023-10-19T09:02:23;9.63;;;4.20;;
77876;SDS011;67251;50.844;7.978;2023-10-19T09:04:48;9.75;;;3.30;;
77876;SDS011;67251;50.844;7.978;2023-10-19T09:07:16;7.60;;;3.67;;
77876;SDS011;67251;50.844;7.978;2023-10-19T09:09:41;13.13;;;8.20;;
77876;SDS011;67251;50.844;7.978;2023-10-19T09:12:07;10.00;;;5.78;;
77876;SDS011;67251;50.844;7.978;2023-10-19T09:14:33;6.78;;;2.25;;
77876;SDS011;67251;50.844;7.978;2023-10-19T09:17:01;6.75;;;2.80;;
77876;SDS011;67251;50.844;7.978;2023-10-19T09:19:45;5.72;;;2.75;;
77876;SDS011;67251;50.844;7.978;2023-10-19T09:22:13;6.13;;;2.63;;
77876;SDS011;67251;50.844;7.978;2023-10-19T09:24:47;6.47;;;2.00;;
77876;SDS011;67251;50.844;7.978;2023-10-19T09:27:21;7.32;;;2.10;;
77876;SDS011;67251;50.844;7.978;2023-10-19T09:29:47;5.38;;;1.73;;
77876;SDS011;67251;50.844;7.978;2023-10-19T09:32:16;5.03;;;1.55;;
77876;SDS011;67251;50.844;7.978;2023-10-19T09:34:41;4.18;;;1.48;;
77876;SDS011;67251;50.844;7.978;2023-10-19T09:37:10;4.10;;;1.42;;
77876;SDS011;67251;50.844;7.978;2023-10-19T09:39:38;5.00;;;1.80;;
77876;SDS011;67251;50.844;7.978;2023-10-19T09:42:08;6.30;;;1.92;;
77876;SDS011;67251;50.844;7.978;2023-10-19T09:44:45;6.90;;;2.38;;
77876;SDS011;67251;50.844;7.978;2023-10-19T09:50:04;8.15;;;1.80;;
77876;SDS011;67251;50.844;7.978;2023-10-19T09:52:31;6.20;;;1.70;;
77876;SDS011;67251;50.844;7.978;2023-10-19T10:00:45;5.88;;;1.88;;
77876;SDS011;67251;50.844;7.978;2023-10-19T10:06:14;3.60;;;1.30;;
77876;SDS011;67251;50.844;7.978;2023-10-19T10:08:41;5.28;;;1.52;;
77876;SDS011;67251;50.844;7.978;2023-10-19T10:11:18;5.85;;;1.77;;
77876;SDS011;67251;50.844;7.978;2023-10-19T10:13:45;3.83;;;1.23;;
77876;SDS011;67251;50.844;7.978;2023-10-19T10:16:15;6.03;;;2.90;;
77876;SDS011;67251;50.844;7.978;2023-10-19T10:18:42;7.70;;;1.85;;
77876;SDS011;67251;50.844;7.978;2023-10-19T10:21:28;5.13;;;1.25;;
77876;SDS011;67251;50.844;7.978;2023-10-19T10:23:58;5.22;;;1.00;;
77876;SDS011;67251;50.844;7.978;2023-10-19T10:26:25;4.50;;;1.30;;
77876;SDS011;67251;50.844;7.978;2023-10-19T10:29:07;4.55;;;1.15;;
77876;SDS011;67251;50.844;7.978;2023-10-19T10:31:56;5.07;;;1.20;;
77876;SDS011;67251;50.844;7.978;2023-10-19T10:37:08;4.60;;;1.17;;
77876;SDS011;67251;50.844;7.978;2023-10-19T10:39:35;4.85;;;1.00;;
77876;SDS011;67251;50.844;7.978;2023-10-19T10:42:02;3.95;;;1.20;;
77876;SDS011;67251;50.844;7.978;2023-10-19T10:47:18;5.88;;;1.23;;
77876;SDS011;67251;50.844;7.978;2023-10-19T10:52:13;5.05;;;1.33;;
77876;SDS011;67251;50.844;7.978;2023-10-19T10:54:47;6.18;;;1.40;;
77876;SDS011;67251;50.844;7.978;2023-10-19T10:57:13;7.05;;;1.00;;
77876;SDS011;67251;50.844;7.978;2023-10-19T10:59:38;4.32;;;1.05;;
77876;SDS011;67251;50.844;7.978;2023-10-19T11:02:16;4.00;;;1.00;;
77876;SDS011;67251;50.844;7.978;2023-10-19T11:04:45;6.80;;;1.25;;
77876;SDS011;67251;50.844;7.978;2023-10-19T11:09:44;4.25;;;1.08;;
77876;SDS011;67251;50.844;7.978;2023-10-19T11:12:13;4.03;;;1.40;;
77876;SDS011;67251;50.844;7.978;2023-10-19T11:14:57;5.15;;;1.20;;
77876;SDS011;67251;50.844;7.978;2023-10-19T11:17:24;5.78;;;1.05;;
77876;SDS011;67251;50.844;7.978;2023-10-19T11:22:21;4.80;;;1.20;;
77876;SDS011;67251;50.844;7.978;2023-10-19T11:24:46;3.30;;;1.10;;
77876;SDS011;67251;50.844;7.978;2023-10-19T11:27:12;5.63;;;1.42;;
77876;SDS011;67251;50.844;7.978;2023-10-19T11:29:37;3.70;;;1.02;;
77876;SDS011;67251;50.844;7.978;2023-10-19T11:32:03;4.03;;;1.10;;
77876;SDS011;67251;50.844;7.978;2023-10-19T11:34:29;6.00;;;1.20;;
77876;SDS011;67251;50.844;7.978;2023-10-19T11:36:58;4.07;;;1.20;;
77876;SDS011;67251;50.844;7.978;2023-10-19T11:39:25;6.00;;;1.20;;
77876;SDS011;67251;50.844;7.978;2023-10-19T11:41:51;4.43;;;1.13;;
77876;SDS011;67251;50.844;7.978;2023-10-19T11:44:18;4.60;;;2.00;;
77876;SDS011;67251;50.844;7.978;2023-10-19T11:46:44;4.88;;;1.35;;
77876;SDS011;67251;50.844;7.978;2023-10-19T11:49:10;5.28;;;1.40;;
77876;SDS011;67251;50.844;7.978;2023-10-19T11:51:35;4.28;;;1.35;;
77876;SDS011;67251;50.844;7.978;2023-10-19T11:54:04;4.57;;;1.85;;
77876;SDS011;67251;50.844;7.978;2023-10-19T11:56:31;5.43;;;1.48;;
77876;SDS011;67251;50.844;7.978;2023-10-19T11:58:56;7.20;;;1.60;;
77876;SDS011;67251;50.844;7.978;2023-10-19T12:01:22;6.65;;;1.50;;
77876;SDS011;67251;50.844;7.978;2023-10-19T12:03:47;5.85;;;2.65;;
77876;SDS011;67251;50.844;7.978;2023-10-19T12:06:13;6.78;;;1.90;;
77876;SDS011;67251;50.844;7.978;2023-10-19T12:08:43;4.95;;;1.38;;
77876;SDS011;67251;50.844;7.978;2023-10-19T12:11:09;4.82;;;1.60;;
77876;SDS011;67251;50.844;7.978;2023-10-19T12:13:43;6.45;;;1.77;;
77876;SDS011;67251;50.844;7.978;2023-10-19T12:16:10;6.63;;;1.73;;
77876;SDS011;67251;50.844;7.978;2023-10-19T12:18:42;5.45;;;1.80;;
77876;SDS011;67251;50.844;7.978;2023-10-19T12:21:08;4.65;;;1.73;;
77876;SDS011;67251;50.844;7.978;2023-10-19T12:23:40;6.75;;;1.60;;
77876;SDS011;67251;50.844;7.978;2023-10-19T12:26:06;6.65;;;1.65;;
77876;SDS011;67251;50.844;7.978;2023-10-19T12:28:38;5.22;;;2.15;;
77876;SDS011;67251;50.844;7.978;2023-10-19T12:31:05;5.70;;;1.73;;
77876;SDS011;67251;50.844;7.978;2023-10-19T12:33:34;5.38;;;1.55;;
77876;SDS011;67251;50.844;7.978;2023-10-19T12:36:00;5.20;;;1.60;;
77876;SDS011;67251;50.844;7.978;2023-10-19T12:38:25;8.35;;;1.90;;
77876;SDS011;67251;50.844;7.978;2023-10-19T12:40:51;9.88;;;2.92;;
77876;SDS011;67251;50.844;7.978;2023-10-19T12:43:17;8.45;;;2.35;;
77876;SDS011;67251;50.844;7.978;2023-10-19T12:45:50;7.28;;;2.22;;
77876;SDS011;67251;50.844;7.978;2023-10-19T12:48:19;5.13;;;1.52;;
77876;SDS011;67251;50.844;7.978;2023-10-19T12:50:45;6.03;;;1.85;;
77876;SDS011;67251;50.844;7.978;2023-10-19T12:53:11;6.00;;;1.70;;
77876;SDS011;67251;50.844;7.978;2023-10-19T12:55:36;5.25;;;1.40;;
77876;SDS011;67251;50.844;7.978;2023-10-19T12:58:05;5.80;;;1.65;;
77876;SDS011;67251;50.844;7.978;2023-10-19T13:00:34;6.40;;;2.13;;
77876;SDS011;67251;50.844;7.978;2023-10-19T13:03:08;5.45;;;1.33;;
77876;SDS011;67251;50.844;7.978;2023-10-19T13:05:38;4.82;;;1.50;;
77876;SDS011;67251;50.844;7.978;2023-10-19T13:08:05;3.88;;;1.25;;
77876;SDS011;67251;50.844;7.978;2023-10-19T13:10:32;5.70;;;1.63;;
77876;SDS011;67251;50.844;7.978;2023-10-19T13:13:05;6.03;;;1.70;;
77876;SDS011;67251;50.844;7.978;2023-10-19T13:15:31;6.13;;;1.90;;
77876;SDS011;67251;50.844;7.978;2023-10-19T13:18:01;5.40;;;1.83;;
77876;SDS011;67251;50.844;7.978;2023-10-19T13:20:28;7.40;;;1.77;;
77876;SDS011;67251;50.844;7.978;2023-10-19T13:23:01;6.28;;;1.65;;
77876;SDS011;67251;50.844;7.978;2023-10-19T13:25:32;4.80;;;2.13;;
77876;SDS011;67251;50.844;7.978;2023-10-19T13:28:07;4.57;;;1.70;;
77876;SDS011;67251;50.844;7.978;2023-10-19T13:30:37;6.60;;;2.28;;
77876;SDS011;67251;50.844;7.978;2023-10-19T13:33:04;4.88;;;1.95;;
77876;SDS011;67251;50.844;7.978;2023-10-19T13:35:31;5.18;;;1.90;;
77876;SDS011;67251;50.844;7.978;2023-10-19T13:37:57;6.20;;;2.00;;
77876;SDS011;67251;50.844;7.978;2023-10-19T13:40:22;7.18;;;2.13;;
77876;SDS011;67251;50.844;7.978;2023-10-19T13:42:48;5.00;;;2.13;;
77876;SDS011;67251;50.844;7.978;2023-10-19T13:45:14;6.68;;;2.15;;
77876;SDS011;67251;50.844;7.978;2023-10-19T13:47:39;5.60;;;1.92;;
77876;SDS011;67251;50.844;7.978;2023-10-19T13:50:05;6.40;;;1.88;;
77876;SDS011;67251;50.844;7.978;2023-10-19T13:52:32;6.97;;;2.20;;
77876;SDS011;67251;50.844;7.978;2023-10-19T13:55:01;4.88;;;2.13;;
77876;SDS011;67251;50.844;7.978;2023-10-19T13:57:28;4.95;;;1.90;;
77876;SDS011;67251;50.844;7.978;2023-10-19T13:59:53;5.78;;;2.30;;
77876;SDS011;67251;50.844;7.978;2023-10-19T14:02:19;5.03;;;1.75;;
77876;SDS011;67251;50.844;7.978;2023-10-19T14:04:44;6.35;;;2.00;;
77876;SDS011;67251;50.844;7.978;2023-10-19T14:07:11;5.15;;;2.20;;
77876;SDS011;67251;50.844;7.978;2023-10-19T14:09:36;6.38;;;1.95;;
77876;SDS011;67251;50.844;7.978;2023-10-19T14:12:02;8.10;;;2.03;;
77876;SDS011;67251;50.844;7.978;2023-10-19T14:14:29;6.72;;;2.83;;
77876;SDS011;67251;50.844;7.978;2023-10-19T14:16:54;4.57;;;2.30;;
77876;SDS011;67251;50.844;7.978;2023-10-19T14:19:19;6.55;;;2.40;;
77876;SDS011;67251;50.844;7.978;2023-10-19T14:21:45;5.57;;;2.63;;
77876;SDS011;67251;50.844;7.978;2023-10-19T14:24:12;7.20;;;2.67;;
77876;SDS011;67251;50.844;7.978;2023-10-19T14:26:38;6.38;;;2.33;;
77876;SDS011;67251;50.844;7.978;2023-10-19T14:29:03;5.90;;;2.72;;
77876;SDS011;67251;50.844;7.978;2023-10-19T14:31:29;5.28;;;2.55;;
77876;SDS011;67251;50.844;7.978;2023-10-19T14:33:54;6.47;;;3.20;;
77876;SDS011;67251;50.844;7.978;2023-10-19T14:36:19;8.65;;;2.88;;
77876;SDS011;67251;50.844;7.978;2023-10-19T14:38:45;6.70;;;2.20;;
77876;SDS011;67251;50.844;7.978;2023-10-19T14:41:11;5.57;;;2.60;;
77876;SDS011;67251;50.844;7.978;2023-10-19T14:43:37;7.78;;;3.20;;
77876;SDS011;67251;50.844;7.978;2023-10-19T14:46:04;5.93;;;2.50;;
77876;SDS011;67251;50.844;7.978;2023-10-19T14:48:31;8.40;;;3.25;;
77876;SDS011;67251;50.844;7.978;2023-10-19T14:50:56;6.18;;;2.63;;
77876;SDS011;67251;50.844;7.978;2023-10-19T14:53:22;8.68;;;2.88;;
77876;SDS011;67251;50.844;7.978;2023-10-19T14:55:49;6.25;;;3.08;;
77876;SDS011;67251;50.844;7.978;2023-10-19T14:58:15;6.38;;;2.85;;
77876;SDS011;67251;50.844;7.978;2023-10-19T15:00:40;6.78;;;2.72;;
77876;SDS011;67251;50.844;7.978;2023-10-19T15:03:11;7.53;;;3.00;;
77876;SDS011;67251;50.844;7.978;2023-10-19T15:05:38;7.70;;;3.03;;
77876;SDS011;67251;50.844;7.978;2023-10-19T15:08:05;8.30;;;2.88;;
77876;SDS011;67251;50.844;7.978;2023-10-19T15:10:32;6.53;;;2.75;;
77876;SDS011;67251;50.844;7.978;2023-10-19T15:12:58;7.38;;;3.47;;
77876;SDS011;67251;50.844;7.978;2023-10-19T15:15:24;6.47;;;3.25;;
77876;SDS011;67251;50.844;7.978;2023-10-19T15:17:50;7.45;;;3.30;;
77876;SDS011;67251;50.844;7.978;2023-10-19T15:20:18;7.38;;;3.50;;
77876;SDS011;67251;50.844;7.978;2023-10-19T15:22:46;6.60;;;3.42;;
77876;SDS011;67251;50.844;7.978;2023-10-19T15:25:12;8.45;;;3.78;;